createdAt,value
2018-05-02T00:02:06.014Z,8.07
2018-05-02T00:04:33.572Z,7.60
2018-05-02T00:07:01.102Z,7.17
2018-05-02T00:09:28.686Z,7.77
2018-05-02T00:11:56.195Z,7.90
2018-05-02T00:14:24.251Z,7.20
2018-05-02T00:16:51.732Z,7.90
2018-05-02T00:19:19.218Z,8.57
2018-05-02T00:21:46.816Z,8.03
2018-05-02T00:24:14.354Z,7.50
2018-05-02T00:26:42.244Z,7.77
2018-05-02T00:29:09.772Z,7.20
2018-05-02T00:31:37.274Z,8.43
2018-05-02T00:34:04.898Z,7.23
2018-05-02T00:36:32.349Z,7.70
2018-05-02T00:38:59.821Z,7.90
2018-05-02T00:41:27.308Z,7.80
2018-05-02T00:43:55.213Z,7.23
2018-05-02T00:46:22.737Z,6.90
2018-05-02T00:49:02.190Z,7.90
2018-05-02T00:51:29.694Z,6.60
2018-05-02T00:53:57.196Z,6.83
2018-05-02T00:56:25.194Z,7.30
2018-05-02T00:58:52.966Z,7.30
2018-05-02T01:01:20.460Z,7.27
2018-05-02T01:03:47.987Z,7.10
2018-05-02T01:06:15.532Z,7.43
2018-05-02T01:08:43.572Z,7.80
2018-05-02T01:11:11.053Z,7.77
2018-05-02T01:13:38.972Z,8.20
2018-05-02T01:16:06.633Z,7.73
2018-05-02T01:18:34.113Z,8.27
2018-05-02T01:21:01.718Z,7.13
2018-05-02T01:23:29.641Z,8.00
2018-05-02T01:25:57.394Z,7.70
2018-05-02T01:28:24.871Z,6.17
2018-05-02T01:30:52.433Z,6.83
2018-05-02T01:33:20.339Z,7.30
2018-05-02T01:35:47.937Z,7.10
2018-05-02T01:38:15.837Z,6.93
2018-05-02T01:40:43.394Z,7.07
2018-05-02T01:43:11.083Z,7.03
2018-05-02T01:45:38.607Z,7.23
2018-05-02T01:48:06.105Z,7.07
2018-05-02T01:50:33.639Z,8.10
2018-05-02T01:53:01.558Z,7.30
2018-05-02T01:55:29.327Z,6.70
2018-05-02T01:57:56.856Z,7.40
2018-05-02T02:00:24.394Z,6.90
2018-05-02T02:02:52.286Z,7.33
2018-05-02T02:05:19.806Z,7.60
2018-05-02T02:07:47.525Z,6.50
2018-05-02T02:10:15.092Z,7.70
2018-05-02T02:12:42.726Z,6.70
2018-05-02T02:15:10.613Z,7.00
2018-05-02T02:17:38.176Z,8.00
2018-05-02T02:20:06.099Z,8.00
2018-05-02T02:22:33.703Z,7.10
2018-05-02T02:25:01.890Z,7.30
2018-05-02T02:27:29.419Z,6.20
2018-05-02T02:29:56.903Z,7.10
2018-05-02T02:32:24.796Z,7.90
2018-05-02T02:34:52.405Z,7.10
2018-05-02T02:37:19.939Z,8.03
2018-05-02T02:39:47.496Z,6.87
2018-05-02T02:42:15.125Z,7.67
2018-05-02T02:44:42.620Z,7.80
2018-05-02T02:47:10.194Z,9.00
2018-05-02T02:49:37.700Z,9.90
2018-05-02T02:52:05.262Z,6.83
2018-05-02T02:54:32.890Z,6.70
2018-05-02T02:57:00.379Z,8.80
2018-05-02T02:59:27.932Z,7.30
2018-05-02T03:01:55.460Z,8.50
2018-05-02T03:04:23.023Z,6.60
2018-05-02T03:06:50.498Z,7.33
2018-05-02T03:09:18.081Z,7.53
2018-05-02T03:11:46.419Z,7.30
2018-05-02T03:14:14.314Z,8.30
2018-05-02T03:16:41.824Z,7.93
2018-05-02T03:19:09.807Z,7.47
2018-05-02T03:21:37.702Z,7.47
2018-05-02T03:24:05.721Z,7.13
2018-05-02T03:26:33.257Z,7.87
2018-05-02T03:29:00.871Z,7.33
2018-05-02T03:31:28.378Z,6.43
2018-05-02T03:33:56.044Z,6.83
2018-05-02T03:36:24.581Z,7.00
2018-05-02T03:38:52.094Z,7.80
2018-05-02T03:41:19.616Z,6.73
2018-05-02T03:43:47.092Z,7.10
2018-05-02T03:46:15.000Z,6.23
2018-05-02T03:48:42.576Z,8.40
2018-05-02T03:51:10.095Z,6.80
2018-05-02T03:53:37.667Z,6.97
2018-05-02T03:56:05.573Z,6.77
2018-05-02T03:58:33.338Z,7.00
2018-05-02T04:01:12.871Z,6.20
2018-05-02T04:03:52.388Z,6.80
2018-05-02T04:06:31.775Z,6.70
2018-05-02T04:08:59.289Z,6.83
2018-05-02T04:11:27.291Z,6.63
2018-05-02T04:13:54.824Z,7.13
2018-05-02T04:16:22.731Z,6.97
2018-05-02T04:18:50.456Z,7.23
2018-05-02T04:21:17.874Z,7.57
2018-05-02T04:23:46.377Z,6.93
2018-05-02T04:26:14.261Z,7.10
2018-05-02T04:28:42.506Z,7.70
2018-05-02T04:31:09.993Z,7.23
2018-05-02T04:33:37.479Z,7.80
2018-05-02T04:36:05.551Z,6.70
2018-05-02T04:38:33.435Z,7.77
2018-05-02T04:41:01.312Z,6.93
2018-05-02T04:43:29.150Z,7.60
2018-05-02T04:45:57.018Z,7.83
2018-05-02T04:48:24.568Z,7.50
2018-05-02T04:50:52.128Z,7.93
2018-05-02T04:53:19.583Z,7.93
2018-05-02T04:55:47.034Z,8.30
2018-05-02T04:58:14.505Z,9.23
2018-05-02T05:00:42.040Z,9.00
2018-05-02T05:03:09.517Z,8.30
2018-05-02T05:05:37.035Z,8.57
2018-05-02T05:08:04.501Z,8.73
2018-05-02T05:10:32.366Z,9.47
2018-05-02T05:13:00.298Z,8.67
2018-05-02T05:15:27.823Z,8.60
2018-05-02T05:17:55.294Z,8.60
2018-05-02T05:20:22.750Z,8.70
2018-05-02T05:22:50.231Z,9.13
2018-05-02T05:25:18.218Z,8.50
2018-05-02T05:27:45.672Z,8.27
2018-05-02T05:30:13.180Z,8.07
2018-05-02T05:32:40.632Z,9.73
2018-05-02T05:35:08.109Z,8.43
2018-05-02T05:37:35.602Z,9.03
2018-05-02T05:40:03.070Z,9.20
2018-05-02T05:42:30.540Z,9.10
2018-05-02T05:44:58.001Z,9.03
2018-05-02T05:47:25.552Z,9.50
2018-05-02T05:49:53.093Z,10.10
2018-05-02T05:52:20.953Z,10.03
2018-05-02T05:54:48.845Z,10.93
2018-05-02T05:57:16.317Z,10.57
2018-05-02T05:59:43.795Z,10.60
2018-05-02T06:02:11.600Z,11.27
2018-05-02T06:04:39.074Z,10.43
2018-05-02T06:07:06.635Z,11.23
2018-05-02T06:09:34.195Z,9.50
2018-05-02T06:12:01.673Z,12.10
2018-05-02T06:14:29.223Z,10.80
2018-05-02T06:16:56.708Z,10.50
2018-05-02T06:19:24.670Z,10.17
2018-05-02T06:21:52.149Z,10.00
2018-05-02T06:24:20.102Z,9.53
2018-05-02T06:26:47.628Z,11.03
2018-05-02T06:29:15.112Z,9.80
2018-05-02T06:31:42.619Z,10.10
2018-05-02T06:34:10.447Z,9.63
2018-05-02T06:36:38.022Z,10.43
2018-05-02T06:39:05.510Z,10.80
2018-05-02T06:41:33.368Z,9.03
2018-05-02T06:44:01.220Z,9.90
2018-05-02T06:46:28.685Z,10.90
2018-05-02T06:48:56.131Z,9.70
2018-05-02T06:51:23.668Z,10.33
2018-05-02T06:53:51.123Z,9.20
2018-05-02T06:56:18.627Z,10.40
2018-05-02T06:58:46.193Z,9.10
2018-05-02T07:01:13.654Z,9.50
2018-05-02T07:03:41.168Z,9.47
2018-05-02T07:06:08.633Z,9.33
2018-05-02T07:08:36.141Z,9.53
2018-05-02T07:11:03.617Z,8.93
2018-05-02T07:13:31.171Z,9.10
2018-05-02T07:15:59.327Z,9.90
2018-05-02T07:18:26.783Z,8.37
2018-05-02T07:20:54.229Z,9.00
2018-05-02T07:23:21.705Z,9.60
2018-05-02T07:25:49.179Z,9.50
2018-05-02T07:28:16.775Z,9.30
2018-05-02T07:30:44.231Z,8.67
2018-05-02T07:33:11.719Z,9.43
2018-05-02T07:35:39.582Z,10.40
2018-05-02T07:38:07.447Z,9.23
2018-05-02T07:40:35.009Z,10.23
2018-05-02T07:43:02.960Z,9.43
2018-05-02T07:45:30.450Z,10.60
2018-05-02T07:47:58.301Z,9.97
2018-05-02T07:50:25.768Z,11.43
2018-05-02T07:52:53.304Z,10.00
2018-05-02T07:55:20.799Z,10.23
2018-05-02T07:57:48.239Z,9.60
2018-05-02T08:00:15.819Z,8.20
2018-05-02T08:02:43.281Z,7.57
2018-05-02T08:05:10.796Z,9.23
2018-05-02T08:07:38.266Z,8.63
2018-05-02T08:10:05.731Z,9.10
2018-05-02T08:12:33.187Z,8.60
2018-05-02T08:15:00.699Z,9.73
2018-05-02T08:17:28.251Z,8.97
2018-05-02T08:19:56.190Z,9.30
2018-05-02T08:22:23.661Z,9.50
2018-05-02T08:24:51.123Z,10.40
2018-05-02T08:27:18.602Z,9.90
2018-05-02T08:29:46.127Z,8.90
2018-05-02T08:32:13.683Z,8.90
2018-05-02T08:34:41.470Z,9.13
2018-05-02T08:37:08.937Z,8.50
2018-05-02T08:39:36.471Z,8.30
2018-05-02T08:42:04.364Z,8.20
2018-05-02T08:44:31.925Z,7.97
2018-05-02T08:46:59.632Z,6.30
2018-05-02T08:49:27.203Z,6.37
2018-05-02T08:51:54.688Z,6.20
2018-05-02T08:54:24.251Z,6.60
2018-05-02T08:56:51.713Z,7.20
2018-05-02T08:59:19.173Z,6.90
2018-05-02T09:01:46.705Z,5.97
2018-05-02T09:04:14.246Z,8.47
2018-05-02T09:06:42.232Z,6.23
2018-05-02T09:09:09.677Z,6.23
2018-05-02T09:11:38.205Z,6.00
2018-05-02T09:14:05.687Z,6.13
2018-05-02T09:16:33.152Z,6.17
2018-05-02T09:19:00.684Z,5.70
2018-05-02T09:21:28.220Z,6.10
2018-05-02T09:23:56.259Z,5.80
2018-05-02T09:26:23.879Z,6.80
2018-05-02T09:28:51.822Z,6.63
2018-05-02T09:31:19.354Z,6.07
2018-05-02T09:33:46.830Z,6.50
2018-05-02T09:36:14.335Z,6.97
2018-05-02T09:38:41.884Z,7.03
2018-05-02T09:41:09.793Z,6.33
2018-05-02T09:43:37.443Z,7.60
2018-05-02T09:46:04.981Z,6.60
2018-05-02T09:48:32.769Z,6.97
2018-05-02T09:51:00.237Z,6.83
2018-05-02T09:53:27.767Z,7.70
2018-05-02T09:55:55.361Z,7.50
2018-05-02T09:58:22.835Z,7.17
2018-05-02T10:00:50.312Z,6.43
2018-05-02T10:03:17.779Z,7.37
2018-05-02T10:05:45.293Z,5.70
2018-05-02T10:08:13.250Z,6.90
2018-05-02T10:10:40.812Z,6.23
2018-05-02T10:13:08.295Z,6.57
2018-05-02T10:15:36.171Z,7.10
2018-05-02T10:18:04.022Z,6.50
2018-05-02T10:20:32.513Z,5.53
2018-05-02T10:22:59.988Z,6.57
2018-05-02T10:25:27.963Z,6.60
2018-05-02T10:27:55.933Z,7.17
2018-05-02T10:30:23.890Z,5.33
2018-05-02T10:32:51.621Z,5.77
2018-05-02T10:35:19.120Z,5.33
2018-05-02T10:37:46.585Z,5.63
2018-05-02T10:40:14.053Z,6.13
2018-05-02T10:42:41.615Z,5.40
2018-05-02T10:45:09.078Z,5.77
2018-05-02T10:47:36.936Z,5.83
2018-05-02T10:52:37.915Z,5.57
2018-05-02T10:55:07.166Z,6.03
2018-05-02T10:57:35.057Z,6.07
2018-05-02T11:00:02.733Z,5.67
2018-05-02T11:02:30.262Z,5.77
2018-05-02T11:04:57.854Z,4.90
2018-05-02T11:07:25.399Z,5.20
2018-05-02T11:09:53.002Z,5.00
2018-05-02T11:12:20.561Z,6.10
2018-05-02T11:14:48.128Z,5.50
2018-05-02T11:17:15.692Z,6.50
2018-05-02T11:19:43.274Z,5.57
2018-05-02T11:22:11.338Z,6.57
2018-05-02T11:24:38.957Z,5.43
2018-05-02T11:27:06.484Z,4.30
2018-05-02T11:29:34.503Z,6.40
2018-05-02T11:32:02.067Z,5.70
2018-05-02T11:34:29.608Z,5.20
2018-05-02T11:36:57.137Z,4.50
2018-05-02T11:39:25.137Z,5.30
2018-05-02T11:41:53.053Z,5.47
2018-05-02T11:44:20.699Z,5.50
2018-05-02T11:46:48.297Z,5.80
2018-05-02T11:49:15.826Z,5.83
2018-05-02T11:51:43.387Z,5.17
2018-05-02T11:54:10.942Z,5.57
2018-05-02T11:56:38.479Z,5.43
2018-05-02T11:59:06.417Z,5.00
2018-05-02T12:01:33.980Z,4.70
2018-05-02T12:04:01.528Z,5.20
2018-05-02T12:06:31.111Z,4.37
2018-05-02T12:08:58.652Z,4.40
2018-05-02T12:11:26.285Z,3.80
2018-05-02T12:13:53.833Z,4.60
2018-05-02T12:16:21.384Z,4.33
2018-05-02T12:18:48.932Z,2.50
2018-05-02T12:21:16.471Z,3.73
2018-05-02T12:23:44.032Z,4.10
2018-05-02T12:26:11.841Z,3.90
2018-05-02T12:28:39.400Z,3.30
2018-05-02T12:31:06.951Z,3.63
2018-05-02T12:33:35.823Z,4.00
2018-05-02T12:36:03.835Z,3.67
2018-05-02T12:38:31.383Z,3.97
2018-05-02T12:40:59.332Z,3.93
2018-05-02T12:43:26.952Z,4.70
2018-05-02T12:45:54.466Z,4.50
2018-05-02T12:48:22.035Z,4.63
2018-05-02T12:50:49.988Z,4.80
2018-05-02T12:53:17.580Z,5.23
2018-05-02T12:55:45.572Z,4.63
2018-05-02T12:58:13.482Z,5.37
2018-05-02T13:00:41.079Z,4.97
2018-05-02T13:03:08.694Z,5.40
2018-05-02T13:05:36.278Z,4.97
2018-05-02T13:08:03.805Z,4.83
2018-05-02T13:10:31.359Z,4.27
2018-05-02T13:12:59.044Z,4.20
2018-05-02T13:15:26.571Z,4.10
2018-05-02T13:17:54.538Z,5.00
2018-05-02T13:20:22.246Z,5.13
2018-05-02T13:22:49.782Z,5.13
2018-05-02T13:25:18.556Z,4.10
2018-05-02T13:27:46.107Z,3.63
2018-05-02T13:30:13.635Z,3.73
2018-05-02T13:32:41.202Z,3.40
2018-05-02T13:35:08.779Z,3.63
2018-05-02T13:37:36.383Z,3.90
2018-05-02T13:40:03.942Z,3.60
2018-05-02T13:42:31.590Z,3.33
2018-05-02T13:44:59.161Z,3.50
2018-05-02T13:47:26.684Z,3.27
2018-05-02T13:49:54.270Z,4.50
2018-05-02T13:52:21.838Z,4.23
2018-05-02T13:54:49.399Z,4.00
2018-05-02T13:57:16.962Z,3.30
2018-05-02T13:59:44.537Z,3.70
2018-05-02T14:02:12.103Z,3.50
2018-05-02T14:04:39.623Z,3.60
2018-05-02T14:07:07.076Z,4.00
2018-05-02T14:09:34.960Z,3.60
2018-05-02T14:12:02.438Z,4.10
2018-05-02T14:14:30.077Z,3.80
2018-05-02T14:16:58.048Z,3.80
2018-05-02T14:19:25.916Z,4.23
2018-05-02T14:21:53.776Z,3.70
2018-05-02T14:24:21.254Z,3.70
2018-05-02T14:26:49.161Z,4.07
2018-05-02T14:29:16.684Z,3.97
2018-05-02T14:31:44.535Z,3.83
2018-05-02T14:34:12.009Z,4.20
2018-05-02T14:36:39.465Z,4.10
2018-05-02T14:39:07.001Z,3.70
2018-05-02T14:41:34.486Z,3.60
2018-05-02T14:44:01.996Z,3.60
2018-05-02T14:46:29.480Z,4.60
2018-05-02T14:48:56.944Z,3.90
2018-05-02T14:51:24.479Z,4.00
2018-05-02T14:53:51.985Z,3.10
2018-05-02T14:56:19.517Z,4.03
2018-05-02T14:58:47.013Z,3.53
2018-05-02T15:01:15.548Z,3.33
2018-05-02T15:03:43.061Z,3.40
2018-05-02T15:06:10.523Z,3.80
2018-05-02T15:08:38.004Z,3.17
2018-05-02T15:11:05.467Z,3.57
2018-05-02T15:13:33.057Z,4.00
2018-05-02T15:16:01.008Z,3.80
2018-05-02T15:18:28.573Z,5.60
2018-05-02T15:20:56.042Z,4.70
2018-05-02T15:23:23.589Z,4.17
2018-05-02T15:25:51.051Z,4.47
2018-05-02T15:28:19.053Z,4.60
2018-05-02T15:30:47.014Z,4.27
2018-05-02T15:33:14.876Z,4.17
2018-05-02T15:35:42.333Z,5.27
2018-05-02T15:38:09.904Z,5.03
2018-05-02T15:40:37.436Z,5.17
2018-05-02T15:43:04.913Z,4.87
2018-05-02T15:45:32.365Z,5.03
2018-05-02T15:47:59.947Z,4.97
2018-05-02T15:50:27.825Z,4.47
2018-05-02T15:52:55.370Z,3.97
2018-05-02T15:55:22.842Z,4.53
2018-05-02T15:57:51.073Z,4.73
2018-05-02T16:00:18.568Z,4.17
2018-05-02T16:02:46.077Z,4.50
2018-05-02T16:05:14.032Z,4.80
2018-05-02T16:07:41.514Z,6.60
2018-05-02T16:10:09.369Z,4.83
2018-05-02T16:12:36.849Z,4.40
2018-05-02T16:15:04.705Z,4.37
2018-05-02T16:17:32.260Z,3.77
2018-05-02T16:19:59.720Z,4.30
2018-05-02T16:22:27.611Z,4.53
2018-05-02T16:24:55.473Z,3.60
2018-05-02T16:27:23.430Z,3.37
2018-05-02T16:29:51.308Z,3.60
2018-05-02T16:32:18.799Z,3.87
2018-05-02T16:34:46.754Z,3.70
2018-05-02T16:37:14.327Z,3.47
2018-05-02T16:39:41.808Z,3.67
2018-05-02T16:42:09.329Z,3.97
2018-05-02T16:44:36.799Z,3.47
2018-05-02T16:47:04.294Z,3.00
2018-05-02T16:49:32.160Z,2.70
2018-05-02T16:52:00.111Z,2.97
2018-05-02T16:54:27.648Z,2.30
2018-05-02T16:56:55.113Z,2.60
2018-05-02T16:59:22.648Z,2.67
2018-05-02T17:01:50.105Z,3.33
2018-05-02T17:04:17.759Z,3.17
2018-05-02T17:06:45.184Z,3.67
2018-05-02T17:09:12.668Z,2.80
2018-05-02T17:11:40.570Z,3.00
2018-05-02T17:14:08.052Z,3.77
2018-05-02T17:16:35.517Z,3.73
2018-05-02T17:19:02.998Z,3.73
2018-05-02T17:21:30.580Z,3.13
2018-05-02T17:23:58.056Z,3.40
2018-05-02T17:26:25.908Z,3.80
2018-05-02T17:28:53.391Z,4.30
2018-05-02T17:31:21.265Z,4.10
2018-05-02T17:33:49.202Z,4.23
2018-05-02T17:36:16.725Z,3.37
2018-05-02T17:38:44.248Z,3.70
2018-05-02T17:41:11.695Z,4.27
2018-05-02T17:43:39.235Z,2.80
2018-05-02T17:46:06.702Z,3.90
2018-05-02T17:48:34.184Z,2.97
2018-05-02T17:51:01.762Z,3.00
2018-05-02T17:53:29.242Z,2.40
2018-05-02T17:55:57.168Z,3.70
2018-05-02T17:58:24.674Z,2.40
2018-05-02T18:00:52.525Z,2.83
2018-05-02T18:03:20.001Z,3.27
2018-05-02T18:05:47.471Z,3.20
2018-05-02T18:08:15.322Z,3.80
2018-05-02T18:10:42.780Z,2.80
2018-05-02T18:13:10.254Z,2.50
2018-05-02T18:15:37.737Z,2.53
2018-05-02T18:18:05.265Z,2.60
2018-05-02T18:20:32.717Z,2.90
2018-05-02T18:23:00.206Z,3.60
2018-05-02T18:25:27.702Z,3.33
2018-05-02T18:27:55.167Z,2.70
2018-05-02T18:30:22.666Z,3.20
2018-05-02T18:32:50.215Z,3.13
2018-05-02T18:35:17.961Z,3.57
2018-05-02T18:37:45.465Z,3.27
2018-05-02T18:40:12.997Z,3.20
2018-05-02T18:42:40.491Z,2.63
2018-05-02T18:45:08.049Z,2.67
2018-05-02T18:47:35.621Z,3.43
2018-05-02T18:50:03.128Z,3.37
2018-05-02T18:52:31.000Z,3.00
2018-05-02T18:54:58.545Z,3.00
2018-05-02T18:57:26.478Z,2.63
2018-05-02T18:59:54.280Z,3.00
2018-05-02T19:02:22.205Z,2.83
2018-05-02T19:04:49.693Z,3.13
2018-05-02T19:07:17.185Z,3.30
2018-05-02T19:09:45.102Z,3.10
2018-05-02T19:12:12.629Z,3.60
2018-05-02T19:14:40.611Z,3.50
2018-05-02T19:17:08.095Z,3.03
2018-05-02T19:19:41.352Z,3.80
2018-05-02T19:22:09.309Z,2.83
2018-05-02T19:24:42.660Z,3.17
2018-05-02T19:27:11.091Z,3.80
2018-05-02T19:29:38.654Z,3.33
2018-05-02T19:32:12.503Z,3.70
2018-05-02T19:34:40.379Z,3.40
2018-05-02T19:37:07.851Z,3.57
2018-05-02T19:39:41.078Z,3.43
2018-05-02T19:42:14.355Z,3.90
2018-05-02T19:44:41.923Z,3.33
2018-05-02T19:47:09.418Z,3.80
2018-05-02T19:49:36.884Z,4.00
2018-05-02T19:52:10.437Z,3.60
2018-05-02T19:54:37.946Z,4.33
2018-05-02T19:57:05.534Z,3.80
2018-05-02T19:59:33.063Z,4.40
2018-05-02T20:02:06.178Z,4.17
2018-05-02T20:04:34.049Z,4.17
2018-05-02T20:07:01.950Z,3.63
2018-05-02T20:09:34.984Z,4.23
2018-05-02T20:12:08.458Z,3.87
2018-05-02T20:14:35.993Z,4.03
2018-05-02T20:17:04.197Z,4.80
2018-05-02T20:22:06.601Z,4.07
2018-05-02T20:24:34.556Z,6.03
2018-05-02T20:27:02.097Z,4.60
2018-05-02T20:29:29.648Z,4.40
2018-05-02T20:31:57.124Z,4.70
2018-05-02T20:34:24.629Z,4.77
2018-05-02T20:36:52.141Z,4.70
2018-05-02T20:39:20.035Z,4.73
2018-05-02T20:41:47.690Z,4.80
2018-05-02T20:44:15.590Z,4.77
2018-05-02T20:46:43.784Z,4.70
2018-05-02T20:49:11.235Z,5.27
2018-05-02T20:51:38.683Z,4.90
2018-05-02T20:54:06.179Z,4.20
2018-05-02T20:56:33.633Z,5.70
2018-05-02T20:59:01.078Z,4.80
2018-05-02T21:01:28.542Z,5.13
2018-05-02T21:03:55.991Z,4.97
2018-05-02T21:06:23.512Z,4.90
2018-05-02T21:08:50.951Z,5.07
2018-05-02T21:11:18.391Z,4.40
2018-05-02T21:13:46.233Z,5.33
2018-05-02T21:16:13.703Z,5.50
2018-05-02T21:18:41.187Z,5.00
2018-05-02T21:21:08.638Z,5.07
2018-05-02T21:23:36.469Z,4.70
2018-05-02T21:26:03.926Z,4.67
2018-05-02T21:28:31.395Z,5.47
2018-05-02T21:30:58.927Z,4.50
2018-05-02T21:33:26.343Z,5.23
2018-05-02T21:35:53.829Z,4.50
2018-05-02T21:38:21.291Z,4.60
2018-05-02T21:40:48.885Z,4.83
2018-05-02T21:43:16.810Z,4.50
2018-05-02T21:45:44.928Z,5.13
2018-05-02T21:48:12.713Z,4.60
2018-05-02T21:50:40.208Z,4.70
2018-05-02T21:53:07.679Z,4.50
2018-05-02T21:55:35.119Z,4.60
2018-05-02T21:58:02.554Z,5.07
2018-05-02T22:00:30.058Z,5.20
2018-05-02T22:02:57.502Z,5.10
2018-05-02T22:05:25.030Z,4.53
2018-05-02T22:07:52.482Z,4.50
2018-05-02T22:10:19.931Z,4.77
2018-05-02T22:12:47.397Z,5.00
2018-05-02T22:15:14.858Z,4.30
2018-05-02T22:17:42.291Z,4.40
2018-05-02T22:20:09.759Z,4.30
2018-05-02T22:22:37.219Z,4.87
2018-05-02T22:25:04.831Z,5.07
2018-05-02T22:27:32.683Z,4.67
2018-05-02T22:30:00.127Z,5.73
2018-05-02T22:32:27.627Z,4.80
2018-05-02T22:34:55.066Z,4.90
2018-05-02T22:37:22.507Z,5.53
2018-05-02T22:39:49.945Z,5.93
2018-05-02T22:42:17.386Z,4.90
2018-05-02T22:44:44.878Z,5.17
2018-05-02T22:47:12.338Z,5.53
2018-05-02T22:49:39.779Z,5.40
2018-05-02T22:52:07.235Z,4.57
2018-05-02T22:54:34.680Z,5.20
2018-05-02T22:57:02.175Z,5.33
2018-05-02T22:59:29.613Z,4.90
2018-05-02T23:01:57.058Z,4.67
2018-05-02T23:04:24.498Z,5.50
2018-05-02T23:06:51.947Z,4.50
2018-05-02T23:09:19.430Z,4.67
2018-05-02T23:11:46.875Z,5.40
2018-05-02T23:14:14.332Z,5.43
2018-05-02T23:16:41.775Z,5.00
2018-05-02T23:19:09.250Z,4.43
2018-05-02T23:21:36.746Z,4.03
2018-05-02T23:24:04.600Z,4.70
2018-05-02T23:26:32.045Z,4.87
2018-05-02T23:28:59.486Z,5.00
2018-05-02T23:31:26.921Z,5.00
2018-05-02T23:33:54.427Z,4.30
2018-05-02T23:36:21.874Z,4.27
2018-05-02T23:38:49.322Z,5.30
2018-05-02T23:41:16.787Z,4.67
2018-05-02T23:43:44.228Z,4.30
2018-05-02T23:46:11.690Z,4.40
2018-05-02T23:48:39.167Z,5.20
2018-05-02T23:51:06.623Z,4.20
2018-05-02T23:53:34.067Z,4.37
2018-05-02T23:56:01.512Z,4.50
2018-05-02T23:58:29.009Z,4.80
